createdAt,value
2022-07-27T00:01:09.800Z,18.84
2022-07-27T00:03:38.393Z,18.87
2022-07-27T00:06:06.580Z,18.78
2022-07-27T00:08:34.762Z,18.88
2022-07-27T00:11:03.314Z,18.90
2022-07-27T00:13:31.663Z,18.83
2022-07-27T00:15:59.498Z,18.70
2022-07-27T00:18:28.972Z,18.69
2022-07-27T00:20:56.872Z,18.76
2022-07-27T00:23:24.692Z,18.75
2022-07-27T00:25:52.707Z,18.67
2022-07-27T00:28:20.536Z,18.55
2022-07-27T00:30:48.305Z,18.52
2022-07-27T00:33:17.318Z,18.49
2022-07-27T00:35:46.967Z,18.45
2022-07-27T00:38:16.509Z,18.22
2022-07-27T00:40:45.124Z,18.35
2022-07-27T00:43:13.654Z,18.53
2022-07-27T00:45:41.684Z,18.61
2022-07-27T00:48:09.517Z,18.68
2022-07-27T00:50:38.638Z,18.63
2022-07-27T00:53:09.334Z,18.56
2022-07-27T00:55:39.380Z,18.40
2022-07-27T00:58:08.699Z,18.14
2022-07-27T01:00:37.096Z,18.46
2022-07-27T01:03:08.800Z,18.57
2022-07-27T01:05:43.130Z,18.63
2022-07-27T01:08:15.005Z,18.68
2022-07-27T01:10:44.475Z,18.73
2022-07-27T01:13:13.478Z,18.78
2022-07-27T01:15:43.311Z,18.88
2022-07-27T01:18:26.476Z,18.86
2022-07-27T01:20:54.379Z,19.01
2022-07-27T01:23:23.593Z,18.92
2022-07-27T01:25:51.787Z,18.78
2022-07-27T01:28:19.654Z,18.57
2022-07-27T01:30:47.669Z,18.34
2022-07-27T01:33:15.466Z,18.47
2022-07-27T01:35:43.379Z,18.58
2022-07-27T01:38:12.894Z,18.54
2022-07-27T01:40:42.185Z,18.62
2022-07-27T01:43:10.035Z,18.53
2022-07-27T01:45:37.902Z,18.58
2022-07-27T01:48:06.138Z,18.52
2022-07-27T01:50:33.977Z,18.33
2022-07-27T01:53:02.023Z,18.08
2022-07-27T01:55:38.751Z,18.25
2022-07-27T01:58:09.472Z,18.11
2022-07-27T02:00:38.101Z,17.83
2022-07-27T02:03:07.755Z,17.76
2022-07-27T02:05:36.058Z,17.86
2022-07-27T02:08:04.658Z,17.95
2022-07-27T02:10:33.026Z,17.78
2022-07-27T02:12:59.825Z,17.74
2022-07-27T02:15:38.838Z,17.83
2022-07-27T02:18:32.832Z,17.71
2022-07-27T02:20:59.352Z,17.53
2022-07-27T02:23:27.354Z,17.49
2022-07-27T02:25:55.194Z,17.47
2022-07-27T02:28:29.052Z,17.50
2022-07-27T02:30:58.202Z,17.41
2022-07-27T02:33:26.026Z,17.43
2022-07-27T02:35:53.903Z,17.41
2022-07-27T02:38:21.740Z,17.39
2022-07-27T02:40:49.558Z,17.46
2022-07-27T02:43:17.310Z,17.38
2022-07-27T02:45:46.455Z,17.35
2022-07-27T02:48:16.223Z,17.36
2022-07-27T02:50:44.084Z,17.17
2022-07-27T02:53:11.918Z,17.14
2022-07-27T02:55:40.120Z,17.36
2022-07-27T02:58:08.208Z,17.32
2022-07-27T03:00:35.990Z,17.30
2022-07-27T03:03:03.923Z,17.22
2022-07-27T03:05:33.655Z,17.38
2022-07-27T03:08:01.646Z,17.51
2022-07-27T03:10:29.400Z,17.42
2022-07-27T03:12:57.188Z,17.57
2022-07-27T03:15:25.182Z,17.43
2022-07-27T03:17:54.035Z,17.59
2022-07-27T03:20:21.980Z,17.64
2022-07-27T03:22:51.090Z,17.64
2022-07-27T03:25:18.950Z,17.66
2022-07-27T03:27:46.767Z,17.52
2022-07-27T03:30:15.005Z,17.46
2022-07-27T03:32:42.794Z,17.48
2022-07-27T03:35:10.989Z,17.58
2022-07-27T03:37:38.834Z,17.55
2022-07-27T03:40:09.784Z,17.64
2022-07-27T03:42:37.944Z,17.31
2022-07-27T03:45:06.979Z,17.75
2022-07-27T03:47:34.775Z,17.60
2022-07-27T03:50:02.781Z,17.60
2022-07-27T03:52:30.690Z,17.49
2022-07-27T03:54:58.515Z,17.39
2022-07-27T03:57:27.604Z,17.35
2022-07-27T03:59:55.417Z,17.29
2022-07-27T04:02:23.292Z,17.37
2022-07-27T04:04:51.384Z,17.44
2022-07-27T04:07:19.145Z,17.27
2022-07-27T04:09:47.244Z,17.13
2022-07-27T04:12:17.296Z,17.35
2022-07-27T04:14:49.140Z,17.40
2022-07-27T04:17:56.433Z,17.30
2022-07-27T04:20:05.900Z,17.26
2022-07-27T04:22:33.732Z,17.41
2022-07-27T04:25:01.768Z,17.43
2022-07-27T04:27:29.575Z,17.32
2022-07-27T04:29:58.762Z,17.58
2022-07-27T04:32:26.533Z,17.77
2022-07-27T04:34:54.337Z,18.04
2022-07-27T04:37:22.119Z,18.04
2022-07-27T04:39:49.941Z,18.05
2022-07-27T04:42:18.300Z,18.33
2022-07-27T04:44:46.110Z,18.30
2022-07-27T04:47:15.288Z,18.15
2022-07-27T04:49:43.049Z,18.33
2022-07-27T04:52:10.846Z,18.48
2022-07-27T04:54:38.600Z,18.31
2022-07-27T04:57:06.678Z,18.24
2022-07-27T04:59:34.467Z,18.40
2022-07-27T05:02:02.255Z,18.43
2022-07-27T05:04:31.544Z,18.25
2022-07-27T05:06:59.462Z,18.01
2022-07-27T05:09:27.337Z,18.21
2022-07-27T05:11:55.126Z,18.08
2022-07-27T05:14:23.405Z,18.15
2022-07-27T05:16:51.698Z,18.15
2022-07-27T05:19:19.539Z,18.01
2022-07-27T05:21:48.681Z,18.18
2022-07-27T05:24:16.427Z,18.39
2022-07-27T05:26:45.830Z,18.40
2022-07-27T05:29:14.217Z,18.66
2022-07-27T05:31:42.398Z,18.69
2022-07-27T05:34:10.275Z,18.83
2022-07-27T05:36:38.098Z,18.82
2022-07-27T05:39:10.423Z,18.79
2022-07-27T05:41:41.466Z,18.86
2022-07-27T05:44:09.383Z,19.19
2022-07-27T05:46:37.186Z,19.15
2022-07-27T05:49:06.150Z,18.94
2022-07-27T05:51:33.982Z,19.08
2022-07-27T05:54:01.936Z,19.25
2022-07-27T05:56:31.426Z,19.00
2022-07-27T05:59:01.619Z,19.04
2022-07-27T06:01:32.920Z,19.06
2022-07-27T06:04:01.063Z,19.25
2022-07-27T06:06:46.752Z,19.48
2022-07-27T06:09:15.197Z,19.72
2022-07-27T06:11:44.727Z,19.74
2022-07-27T06:14:12.595Z,19.59
2022-07-27T06:16:40.531Z,19.49
2022-07-27T06:19:08.643Z,19.52
2022-07-27T06:21:36.712Z,19.60
2022-07-27T06:24:05.169Z,19.84
2022-07-27T06:26:32.945Z,19.91
2022-07-27T06:29:02.106Z,19.98
2022-07-27T06:31:35.548Z,19.76
2022-07-27T06:34:03.915Z,19.62
2022-07-27T06:36:36.052Z,19.91
2022-07-27T06:39:03.906Z,19.96
2022-07-27T06:41:34.138Z,19.95
2022-07-27T06:44:03.369Z,20.30
2022-07-27T06:46:31.228Z,19.99
2022-07-27T06:48:59.106Z,20.50
2022-07-27T06:51:26.941Z,20.42
2022-07-27T06:53:54.876Z,20.48
2022-07-27T06:56:23.028Z,20.20
2022-07-27T06:58:51.556Z,20.05
2022-07-27T07:01:20.743Z,20.23
2022-07-27T07:03:48.631Z,20.29
2022-07-27T07:06:16.618Z,20.37
2022-07-27T07:08:44.488Z,20.56
2022-07-27T07:11:14.019Z,20.79
2022-07-27T07:13:44.955Z,21.09
2022-07-27T07:16:13.258Z,21.00
2022-07-27T07:18:42.446Z,21.31
2022-07-27T07:21:10.257Z,21.79
2022-07-27T07:23:38.110Z,22.29
2022-07-27T07:26:06.245Z,22.46
2022-07-27T07:28:34.160Z,22.01
2022-07-27T07:31:02.032Z,22.17
2022-07-27T07:33:29.888Z,21.98
2022-07-27T07:36:13.854Z,21.86
2022-07-27T07:38:43.086Z,21.76
2022-07-27T07:41:10.954Z,21.84
2022-07-27T07:43:39.768Z,22.13
2022-07-27T07:46:09.553Z,22.10
2022-07-27T07:48:39.485Z,22.36
2022-07-27T07:51:09.102Z,22.65
2022-07-27T07:53:41.447Z,22.44
2022-07-27T07:56:09.731Z,22.50
2022-07-27T07:58:37.630Z,22.39
2022-07-27T08:01:05.569Z,22.45
2022-07-27T08:03:33.487Z,22.47
2022-07-27T08:06:02.698Z,22.52
2022-07-27T08:08:33.056Z,22.53
2022-07-27T08:11:00.959Z,22.85
2022-07-27T08:13:28.767Z,22.72
2022-07-27T08:15:56.836Z,23.15
2022-07-27T08:18:24.623Z,22.97
2022-07-27T08:20:52.405Z,23.60
2022-07-27T08:23:20.380Z,23.51
2022-07-27T08:25:49.636Z,23.71
2022-07-27T08:28:17.506Z,23.76
2022-07-27T08:30:46.610Z,23.84
2022-07-27T08:33:14.412Z,23.58
2022-07-27T08:35:42.567Z,23.53
2022-07-27T08:38:10.777Z,23.53
2022-07-27T08:40:42.949Z,23.23
2022-07-27T08:43:21.897Z,23.09
2022-07-27T08:45:57.237Z,23.20
2022-07-27T08:48:25.719Z,23.41
2022-07-27T08:50:54.079Z,24.26
2022-07-27T08:53:22.766Z,24.49
2022-07-27T08:55:51.088Z,25.22
2022-07-27T08:58:20.649Z,24.36
2022-07-27T09:00:50.017Z,24.60
2022-07-27T09:03:21.095Z,24.36
2022-07-27T09:05:52.192Z,24.61
2022-07-27T09:08:24.145Z,24.80
2022-07-27T09:10:54.443Z,24.56
2022-07-27T09:13:26.072Z,25.04
2022-07-27T09:16:16.956Z,25.56
2022-07-27T09:18:43.824Z,25.58
2022-07-27T09:21:16.948Z,25.63
2022-07-27T09:23:48.010Z,25.33
2022-07-27T09:26:31.685Z,25.47
2022-07-27T09:29:03.719Z,24.79
2022-07-27T09:31:32.483Z,24.88
2022-07-27T09:34:01.837Z,25.18
2022-07-27T09:36:31.406Z,25.69
2022-07-27T09:39:03.147Z,25.51
2022-07-27T09:41:43.023Z,26.08
2022-07-27T09:44:31.297Z,26.26
2022-07-27T09:47:00.150Z,25.89
2022-07-27T09:49:32.814Z,27.29
2022-07-27T09:52:02.838Z,27.20
2022-07-27T09:54:44.165Z,27.21
2022-07-27T09:57:12.198Z,27.21
2022-07-27T09:59:41.509Z,27.26
2022-07-27T10:02:09.451Z,27.66
2022-07-27T10:04:37.605Z,27.07
2022-07-27T10:07:09.488Z,26.81
2022-07-27T10:09:41.540Z,25.86
2022-07-27T10:12:10.169Z,26.14
2022-07-27T10:14:37.919Z,25.59
2022-07-27T10:17:10.689Z,26.13
2022-07-27T10:19:46.725Z,26.55
2022-07-27T10:22:14.814Z,27.93
2022-07-27T10:24:42.838Z,26.97
2022-07-27T10:27:21.525Z,26.86
2022-07-27T10:29:50.970Z,26.84
2022-07-27T10:32:26.440Z,26.72
2022-07-27T10:34:54.790Z,26.67
2022-07-27T10:37:26.933Z,27.04
2022-07-27T10:40:11.395Z,26.52
2022-07-27T10:42:39.651Z,26.39
2022-07-27T10:45:09.607Z,26.81
2022-07-27T10:47:42.044Z,26.84
2022-07-27T10:50:33.122Z,26.79
2022-07-27T10:53:11.211Z,26.26
2022-07-27T10:55:46.824Z,26.21
2022-07-27T10:58:52.297Z,26.52
2022-07-27T11:01:21.678Z,26.79
2022-07-27T11:03:54.381Z,26.55
2022-07-27T11:06:41.958Z,26.95
2022-07-27T11:12:02.011Z,26.24
2022-07-27T11:14:31.854Z,27.47
2022-07-27T11:17:24.320Z,27.82
2022-07-27T11:19:54.555Z,28.02
2022-07-27T11:25:21.692Z,27.76
2022-07-27T11:27:50.225Z,27.73
2022-07-27T11:30:27.184Z,28.02
2022-07-27T11:32:56.670Z,27.16
2022-07-27T11:35:25.896Z,27.70
2022-07-27T11:38:01.848Z,28.39
2022-07-27T11:43:34.691Z,27.41
2022-07-27T11:46:15.787Z,27.74
2022-07-27T11:49:06.742Z,27.89
2022-07-27T11:51:37.811Z,27.95
2022-07-27T11:54:08.361Z,28.01
2022-07-27T11:56:37.897Z,28.04
2022-07-27T11:59:11.575Z,27.70
2022-07-27T12:01:42.272Z,28.39
2022-07-27T12:04:19.485Z,28.53
2022-07-27T12:06:55.834Z,28.17
2022-07-27T12:09:24.672Z,28.47
2022-07-27T12:11:55.378Z,28.22
2022-07-27T12:14:34.536Z,28.49
2022-07-27T12:17:14.149Z,28.91
2022-07-27T12:19:42.880Z,28.56
2022-07-27T12:22:12.023Z,29.03
2022-07-27T12:24:42.398Z,28.84
2022-07-27T12:27:14.810Z,29.13
2022-07-27T12:30:00.456Z,28.48
2022-07-27T12:32:29.766Z,27.86
2022-07-27T12:34:57.682Z,27.33
2022-07-27T12:37:32.563Z,27.18
2022-07-27T12:40:01.299Z,27.12
2022-07-27T12:42:37.491Z,27.94
2022-07-27T12:45:18.238Z,27.75
2022-07-27T12:47:46.917Z,27.37
2022-07-27T12:50:17.042Z,27.15
2022-07-27T12:52:49.029Z,27.19
2022-07-27T12:55:17.700Z,27.34
2022-07-27T12:57:55.676Z,27.85
2022-07-27T13:00:33.511Z,27.43
2022-07-27T13:03:03.456Z,27.77
2022-07-27T13:05:31.578Z,28.15
2022-07-27T13:08:01.465Z,28.50
2022-07-27T13:10:29.601Z,29.14
2022-07-27T13:12:58.216Z,29.42
2022-07-27T13:15:26.308Z,29.12
2022-07-27T13:17:54.339Z,28.95
2022-07-27T13:20:22.171Z,29.00
2022-07-27T13:22:49.986Z,29.40
2022-07-27T13:25:19.620Z,29.94
2022-07-27T13:27:49.459Z,30.51
2022-07-27T13:30:19.008Z,31.00
2022-07-27T13:32:47.982Z,30.94
2022-07-27T13:35:17.570Z,31.01
2022-07-27T13:37:46.292Z,30.30
2022-07-27T13:40:15.193Z,29.81
2022-07-27T13:42:44.648Z,29.38
2022-07-27T13:45:12.587Z,29.64
2022-07-27T13:47:41.348Z,29.82
2022-07-27T13:50:17.914Z,29.23
2022-07-27T13:52:46.912Z,28.47
2022-07-27T13:55:15.855Z,28.10
2022-07-27T13:57:45.725Z,28.63
2022-07-27T14:00:14.737Z,28.60
2022-07-27T14:02:43.094Z,29.48
2022-07-27T14:05:13.123Z,29.40
2022-07-27T14:07:43.138Z,29.29
2022-07-27T14:10:30.268Z,28.93
2022-07-27T14:13:07.933Z,28.65
2022-07-27T14:15:50.420Z,27.97
2022-07-27T14:18:29.219Z,28.22
2022-07-27T14:20:59.076Z,28.47
2022-07-27T14:23:28.083Z,28.54
2022-07-27T14:25:58.359Z,28.59
2022-07-27T14:28:29.123Z,28.81
2022-07-27T14:30:57.095Z,29.56
2022-07-27T14:33:26.285Z,29.60
2022-07-27T14:36:02.022Z,29.56
2022-07-27T14:38:30.890Z,29.33
2022-07-27T14:41:00.777Z,29.29
2022-07-27T14:43:31.151Z,29.61
2022-07-27T14:45:59.379Z,29.15
2022-07-27T14:48:48.540Z,29.05
2022-07-27T14:51:15.217Z,29.39
2022-07-27T14:53:43.036Z,28.88
2022-07-27T14:56:10.775Z,29.07
2022-07-27T14:58:39.900Z,28.91
2022-07-27T15:01:07.759Z,29.36
2022-07-27T15:03:35.881Z,29.44
2022-07-27T15:06:03.879Z,29.67
2022-07-27T15:08:31.714Z,30.18
2022-07-27T15:10:59.691Z,30.11
2022-07-27T15:13:27.483Z,28.90
2022-07-27T15:15:58.100Z,29.87
2022-07-27T15:18:26.052Z,30.04
2022-07-27T15:20:53.854Z,29.56
2022-07-27T15:23:22.319Z,29.20
2022-07-27T15:25:50.145Z,29.77
2022-07-27T15:28:17.964Z,29.68
2022-07-27T15:30:45.839Z,28.95
2022-07-27T15:33:15.067Z,28.60
2022-07-27T15:35:43.092Z,28.59
2022-07-27T15:38:10.848Z,28.56
2022-07-27T15:40:38.880Z,27.53
2022-07-27T15:43:10.625Z,27.87
2022-07-27T15:45:39.469Z,28.55
2022-07-27T15:48:09.372Z,28.98
2022-07-27T15:50:41.039Z,28.91
2022-07-27T15:53:09.136Z,29.22
2022-07-27T15:55:39.467Z,28.97
2022-07-27T15:58:07.954Z,28.90
2022-07-27T16:00:40.548Z,28.81
2022-07-27T16:03:10.013Z,28.78
2022-07-27T16:05:39.665Z,28.17
2022-07-27T16:08:09.763Z,29.02
2022-07-27T16:10:37.626Z,28.78
2022-07-27T16:13:05.991Z,27.90
2022-07-27T16:15:52.256Z,27.73
2022-07-27T16:18:20.155Z,28.00
2022-07-27T16:20:49.354Z,27.70
2022-07-27T16:23:19.112Z,27.38
2022-07-27T16:26:07.464Z,27.57
2022-07-27T16:28:38.801Z,27.47
2022-07-27T16:31:08.102Z,27.79
2022-07-27T16:33:36.099Z,27.32
2022-07-27T16:36:08.352Z,27.56
2022-07-27T16:38:37.702Z,27.22
2022-07-27T16:41:10.708Z,27.11
2022-07-27T16:43:39.630Z,27.13
2022-07-27T16:46:09.997Z,26.89
2022-07-27T16:48:42.628Z,26.79
2022-07-27T16:51:13.694Z,26.72
2022-07-27T16:53:43.737Z,27.30
2022-07-27T16:56:12.590Z,27.39
2022-07-27T16:58:40.985Z,27.60
2022-07-27T17:01:09.631Z,27.48
2022-07-27T17:03:49.785Z,27.39
2022-07-27T17:06:20.877Z,27.24
2022-07-27T17:08:49.131Z,27.37
2022-07-27T17:11:21.547Z,27.28
2022-07-27T17:13:51.176Z,26.48
2022-07-27T17:16:27.136Z,26.95
2022-07-27T17:18:55.154Z,27.30
2022-07-27T17:21:24.418Z,26.82
2022-07-27T17:23:52.350Z,26.58
2022-07-27T17:26:20.148Z,26.26
2022-07-27T17:28:52.069Z,26.40
2022-07-27T17:31:21.141Z,26.46
2022-07-27T17:33:49.906Z,26.44
2022-07-27T17:36:17.736Z,26.49
2022-07-27T17:38:48.533Z,26.11
2022-07-27T17:41:23.811Z,25.95
2022-07-27T17:43:52.813Z,25.85
2022-07-27T17:46:21.071Z,25.82
2022-07-27T17:48:49.007Z,25.82
2022-07-27T17:51:16.898Z,25.83
2022-07-27T17:53:46.578Z,25.36
2022-07-27T17:56:14.332Z,25.59
2022-07-27T17:58:42.911Z,25.19
2022-07-27T18:01:10.769Z,25.00
2022-07-27T18:03:38.591Z,24.82
2022-07-27T18:06:06.943Z,24.74
2022-07-27T18:08:34.923Z,24.82
2022-07-27T18:11:04.577Z,24.81
2022-07-27T18:13:39.504Z,24.84
2022-07-27T18:16:11.483Z,24.50
2022-07-27T18:18:41.275Z,24.28
2022-07-27T18:21:10.573Z,24.11
2022-07-27T18:23:38.776Z,24.09
2022-07-27T18:26:09.914Z,23.95
2022-07-27T18:28:40.063Z,23.80
2022-07-27T18:31:09.698Z,23.96
2022-07-27T18:33:37.912Z,23.85
2022-07-27T18:36:06.463Z,23.46
2022-07-27T18:38:34.430Z,23.42
2022-07-27T18:41:02.905Z,23.23
2022-07-27T18:43:32.167Z,23.24
2022-07-27T18:45:59.991Z,23.17
2022-07-27T18:48:28.805Z,23.34
2022-07-27T18:50:56.943Z,23.12
2022-07-27T18:53:25.009Z,23.13
2022-07-27T18:55:56.185Z,22.99
2022-07-27T18:58:25.802Z,23.00
2022-07-27T19:00:55.640Z,22.83
2022-07-27T19:03:24.604Z,22.87
2022-07-27T19:05:55.716Z,22.74
2022-07-27T19:08:24.145Z,22.44
2022-07-27T19:10:52.545Z,22.48
2022-07-27T19:13:21.165Z,22.34
2022-07-27T19:15:48.999Z,22.11
2022-07-27T19:18:18.263Z,21.64
2022-07-27T19:20:46.143Z,21.58
2022-07-27T19:23:13.905Z,21.59
2022-07-27T19:25:42.045Z,21.43
2022-07-27T19:28:09.826Z,21.39
2022-07-27T19:30:39.283Z,21.23
2022-07-27T19:33:07.144Z,21.32
2022-07-27T19:35:36.306Z,21.31
2022-07-27T19:38:04.175Z,20.97
2022-07-27T19:40:47.482Z,20.99
2022-07-27T19:43:15.894Z,20.82
2022-07-27T19:45:44.340Z,20.88
2022-07-27T19:48:12.427Z,20.91
2022-07-27T19:50:42.318Z,20.81
2022-07-27T19:53:10.076Z,20.67
2022-07-27T19:55:37.918Z,20.70
2022-07-27T19:58:05.715Z,20.74
2022-07-27T20:00:33.536Z,20.66
2022-07-27T20:03:01.408Z,20.59
2022-07-27T20:05:29.539Z,20.72
2022-07-27T20:07:58.786Z,20.48
2022-07-27T20:10:26.968Z,20.30
2022-07-27T20:12:54.740Z,20.38
2022-07-27T20:15:22.775Z,20.49
2022-07-27T20:17:50.941Z,20.41
2022-07-27T20:20:18.995Z,20.44
2022-07-27T20:22:46.771Z,20.39
2022-07-27T20:25:16.179Z,20.18
2022-07-27T20:27:44.216Z,20.10
2022-07-27T20:30:14.519Z,19.67
2022-07-27T20:32:42.488Z,19.78
2022-07-27T20:35:10.414Z,19.63
2022-07-27T20:37:38.720Z,19.42
2022-07-27T20:40:09.626Z,19.53
2022-07-27T20:42:40.288Z,19.59
2022-07-27T20:45:12.739Z,19.51
2022-07-27T20:47:40.709Z,19.43
2022-07-27T20:50:09.713Z,19.41
2022-07-27T20:52:37.810Z,19.42
2022-07-27T20:55:06.728Z,19.27
2022-07-27T20:57:34.754Z,19.32
2022-07-27T21:00:06.514Z,19.17
2022-07-27T21:02:34.577Z,19.19
2022-07-27T21:05:02.699Z,19.04
2022-07-27T21:07:30.494Z,19.04
2022-07-27T21:09:58.263Z,18.91
2022-07-27T21:12:26.029Z,18.74
2022-07-27T21:14:54.221Z,18.72
2022-07-27T21:17:23.479Z,18.71
2022-07-27T21:19:51.240Z,18.70
2022-07-27T21:22:20.567Z,18.72
2022-07-27T21:24:49.557Z,18.55
2022-07-27T21:27:20.811Z,18.65
2022-07-27T21:29:49.354Z,18.61
2022-07-27T21:32:17.415Z,18.59
2022-07-27T21:34:46.543Z,18.57
2022-07-27T21:37:14.372Z,18.43
2022-07-27T21:39:42.208Z,18.44
2022-07-27T21:42:09.954Z,18.44
2022-07-27T21:44:37.693Z,18.25
2022-07-27T21:47:11.395Z,18.19
2022-07-27T21:49:41.048Z,18.25
2022-07-27T21:52:11.179Z,18.03
2022-07-27T21:54:39.205Z,18.04
2022-07-27T21:57:06.983Z,17.99
2022-07-27T21:59:36.212Z,17.91
2022-07-27T22:02:05.008Z,17.83
2022-07-27T22:04:32.954Z,17.74
2022-07-27T22:07:00.849Z,18.01
2022-07-27T22:09:30.208Z,17.90
2022-07-27T22:11:58.059Z,17.83
2022-07-27T22:14:25.910Z,17.80
2022-07-27T22:16:53.936Z,17.83
2022-07-27T22:19:21.863Z,17.74
2022-07-27T22:21:49.818Z,17.71
2022-07-27T22:24:17.769Z,17.67
2022-07-27T22:26:47.226Z,17.68
2022-07-27T22:29:15.035Z,17.63
2022-07-27T22:31:42.904Z,17.81
2022-07-27T22:34:11.021Z,17.76
2022-07-27T22:36:39.232Z,17.43
2022-07-27T22:39:07.310Z,17.48
2022-07-27T22:41:35.148Z,17.56
2022-07-27T22:44:04.304Z,17.44
2022-07-27T22:46:32.162Z,17.45
2022-07-27T22:49:00.230Z,17.32
2022-07-27T22:51:49.688Z,17.28
2022-07-27T22:54:16.296Z,17.12
2022-07-27T22:56:44.512Z,17.36
2022-07-27T22:59:13.691Z,17.03
2022-07-27T23:01:46.836Z,17.14
2022-07-27T23:04:16.726Z,17.11
2022-07-27T23:06:45.198Z,17.17
2022-07-27T23:09:13.341Z,16.92
2022-07-27T23:11:42.102Z,16.86
2022-07-27T23:14:10.011Z,17.10
2022-07-27T23:16:39.573Z,16.91
2022-07-27T23:19:07.472Z,16.97
2022-07-27T23:21:35.522Z,16.92
2022-07-27T23:24:05.517Z,16.91
2022-07-27T23:26:33.599Z,16.79
2022-07-27T23:29:01.882Z,16.91
2022-07-27T23:31:29.751Z,16.74
2022-07-27T23:33:58.935Z,16.51
2022-07-27T23:36:26.711Z,16.66
2022-07-27T23:38:54.500Z,16.51
2022-07-27T23:41:22.539Z,16.65
2022-07-27T23:43:50.356Z,16.47
2022-07-27T23:46:18.252Z,16.45
2022-07-27T23:48:46.246Z,16.40
2022-07-27T23:51:18.708Z,16.16
2022-07-27T23:53:47.588Z,15.96
2022-07-27T23:56:15.911Z,16.08
2022-07-27T23:58:43.747Z,16.11
